createdAt,value
2023-08-28T00:02:52.376Z,98022.78
2023-08-28T00:06:16.100Z,98023.59
2023-08-28T00:09:40.831Z,98016.66
2023-08-28T00:13:04.356Z,98012.13
2023-08-28T00:16:26.986Z,98002.41
2023-08-28T00:19:49.232Z,98002.16
2023-08-28T00:23:12.534Z,97994.34
2023-08-28T00:26:34.748Z,97999.38
2023-08-28T00:29:57.905Z,97994.34
2023-08-28T00:33:20.276Z,97976.69
2023-08-28T00:36:43.766Z,97953.69
2023-08-28T00:40:08.277Z,97968.75
2023-08-28T00:43:31.711Z,97967.94
2023-08-28T00:46:54.484Z,97970.94
2023-08-28T00:50:17.431Z,97966.69
2023-08-28T00:53:41.348Z,97961.25
2023-08-28T00:57:05.719Z,97960.13
2023-08-28T01:00:29.100Z,97965.22
2023-08-28T01:03:51.481Z,97970.94
2023-08-28T01:07:24.195Z,97969.09
2023-08-28T01:10:52.578Z,97969.50
2023-08-28T01:14:27.803Z,97958.00
2023-08-28T01:18:01.467Z,97946.72
2023-08-28T01:21:25.704Z,97955.41
2023-08-28T01:24:52.735Z,97945.91
2023-08-28T01:28:15.201Z,97949.03
2023-08-28T01:31:37.652Z,97914.50
2023-08-28T01:35:02.089Z,97947.38
2023-08-28T01:38:32.099Z,97945.69
2023-08-28T01:41:56.218Z,97946.97
2023-08-28T01:45:21.766Z,97950.38
2023-08-28T01:48:53.473Z,97942.88
2023-08-28T01:52:15.812Z,97960.16
2023-08-28T01:55:57.697Z,97970.16
2023-08-28T01:59:20.172Z,97973.09
2023-08-28T02:02:44.722Z,97969.47
2023-08-28T02:06:08.464Z,97973.94
2023-08-28T02:09:31.737Z,97981.41
2023-08-28T02:12:54.063Z,97992.47
2023-08-28T02:16:20.611Z,97991.66
2023-08-28T02:19:44.320Z,97996.13
2023-08-28T02:23:06.623Z,97993.03
2023-08-28T02:26:29.644Z,97989.97
2023-08-28T02:29:52.716Z,97991.44
2023-08-28T02:33:15.643Z,98017.25
2023-08-28T02:36:39.141Z,98027.84
2023-08-28T02:40:04.387Z,98011.25
2023-08-28T02:43:26.637Z,98019.31
2023-08-28T02:46:48.925Z,98013.69
2023-08-28T02:50:13.345Z,98023.56
2023-08-28T02:53:36.682Z,98017.63
2023-08-28T02:56:58.940Z,98011.63
2023-08-28T03:00:21.487Z,98001.00
2023-08-28T03:03:44.373Z,97990.75
2023-08-28T03:07:07.695Z,97982.22
2023-08-28T03:10:32.371Z,97981.84
2023-08-28T03:13:56.019Z,97972.72
2023-08-28T03:17:19.290Z,97968.53
2023-08-28T03:20:42.384Z,97955.09
2023-08-28T03:24:05.099Z,97971.78
2023-08-28T03:27:27.405Z,97969.44
2023-08-28T03:30:49.697Z,97959.41
2023-08-28T03:34:12.180Z,97952.97
2023-08-28T03:37:34.421Z,97956.16
2023-08-28T03:40:57.426Z,97967.34
2023-08-28T03:44:19.732Z,97959.22
2023-08-28T03:47:42.243Z,97927.16
2023-08-28T03:51:04.611Z,97958.81
2023-08-28T03:54:29.007Z,97948.78
2023-08-28T03:57:52.688Z,97934.41
2023-08-28T04:01:15.330Z,97932.31
2023-08-28T04:04:38.821Z,97928.50
2023-08-28T04:08:01.267Z,97928.16
2023-08-28T04:11:23.559Z,97918.22
2023-08-28T04:14:45.779Z,97906.78
2023-08-28T04:18:09.120Z,97910.25
2023-08-28T04:21:31.639Z,97918.06
2023-08-28T04:24:54.743Z,97920.34
2023-08-28T04:28:17.285Z,97926.22
2023-08-28T04:31:40.066Z,97919.25
2023-08-28T04:35:03.331Z,97917.19
2023-08-28T04:38:27.197Z,97923.00
2023-08-28T04:41:49.685Z,97929.72
2023-08-28T04:45:11.953Z,97935.59
2023-08-28T04:48:34.236Z,97931.84
2023-08-28T04:51:56.636Z,97934.97
2023-08-28T04:55:18.861Z,97940.38
2023-08-28T04:58:41.789Z,97945.75
2023-08-28T05:02:04.298Z,97937.31
2023-08-28T05:05:26.547Z,97937.22
2023-08-28T05:08:48.881Z,97939.88
2023-08-28T05:12:11.196Z,97937.38
2023-08-28T05:15:33.523Z,97949.25
2023-08-28T05:18:55.789Z,97943.50
2023-08-28T05:22:18.034Z,97919.66
2023-08-28T05:25:40.429Z,97947.41
2023-08-28T05:29:03.019Z,97931.81
2023-08-28T05:32:25.369Z,97945.38
2023-08-28T05:35:47.701Z,97937.94
2023-08-28T05:39:10.075Z,97940.34
2023-08-28T05:42:32.566Z,97953.44
2023-08-28T05:45:54.835Z,97938.81
2023-08-28T05:49:17.120Z,97938.50
2023-08-28T05:52:39.460Z,97944.53
2023-08-28T05:56:01.798Z,97942.06
2023-08-28T05:59:24.125Z,97927.09
2023-08-28T06:02:46.507Z,97923.09
2023-08-28T06:06:08.854Z,97913.25
2023-08-28T06:09:32.540Z,97918.75
2023-08-28T06:12:54.898Z,97925.28
2023-08-28T06:16:18.218Z,97927.28
2023-08-28T06:19:40.505Z,97924.97
2023-08-28T06:23:03.044Z,97921.66
2023-08-28T06:26:25.524Z,97903.97
2023-08-28T06:29:50.382Z,97919.09
2023-08-28T06:33:12.804Z,97915.38
2023-08-28T06:36:35.082Z,97918.09
2023-08-28T06:39:57.434Z,97920.38
2023-08-28T06:43:20.042Z,97931.19
2023-08-28T06:46:42.391Z,97932.31
2023-08-28T06:50:04.945Z,97936.94
2023-08-28T06:53:27.240Z,97933.13
2023-08-28T06:56:49.539Z,97935.69
2023-08-28T07:00:12.471Z,97950.53
2023-08-28T07:03:34.800Z,97949.97
2023-08-28T07:06:57.230Z,97953.91
2023-08-28T07:10:19.490Z,97952.69
2023-08-28T07:13:41.954Z,97955.19
2023-08-28T07:17:04.378Z,97971.09
2023-08-28T07:20:26.761Z,97961.34
2023-08-28T07:23:51.750Z,97951.88
2023-08-28T07:27:14.013Z,97963.66
2023-08-28T07:30:36.813Z,97949.25
2023-08-28T07:34:00.370Z,97950.22
2023-08-28T07:37:22.645Z,97955.69
2023-08-28T07:40:47.156Z,97945.44
2023-08-28T07:44:10.620Z,97952.94
2023-08-28T07:47:32.912Z,97952.47
2023-08-28T07:50:56.295Z,97958.66
2023-08-28T07:54:18.847Z,97956.88
2023-08-28T07:57:41.163Z,97953.22
2023-08-28T08:01:03.432Z,97959.47
2023-08-28T08:04:27.276Z,97966.47
2023-08-28T08:07:50.172Z,97960.69
2023-08-28T08:11:13.713Z,97969.41
2023-08-28T08:14:36.121Z,97960.91
2023-08-28T08:17:58.567Z,97967.78
2023-08-28T08:21:21.195Z,97961.97
2023-08-28T08:24:43.637Z,97954.06
2023-08-28T08:28:06.069Z,97962.56
2023-08-28T08:31:28.430Z,97938.84
2023-08-28T08:34:52.012Z,97935.78
2023-08-28T08:38:14.306Z,97944.81
2023-08-28T08:41:37.519Z,97931.81
2023-08-28T08:44:59.839Z,97933.16
2023-08-28T08:48:25.860Z,97908.75
2023-08-28T08:51:52.230Z,97929.25
2023-08-28T08:55:48.572Z,97932.06
2023-08-28T08:59:11.582Z,97927.22
2023-08-28T09:02:34.628Z,97928.97
2023-08-28T09:05:58.778Z,97923.31
2023-08-28T09:09:21.266Z,97924.16
2023-08-28T09:12:44.683Z,97920.03
2023-08-28T09:16:07.171Z,97917.34
2023-08-28T09:19:31.426Z,97913.91
2023-08-28T09:22:56.120Z,97904.97
2023-08-28T09:26:21.151Z,97904.19
2023-08-28T09:29:43.521Z,97900.72
2023-08-28T09:33:07.720Z,97889.34
2023-08-28T09:36:33.745Z,97897.66
2023-08-28T09:39:58.523Z,97886.34
2023-08-28T09:43:20.861Z,97884.50
2023-08-28T09:46:45.024Z,97892.59
2023-08-28T09:50:08.348Z,97901.75
2023-08-28T09:53:32.217Z,97905.47
2023-08-28T09:56:54.624Z,97894.59
2023-08-28T10:00:17.209Z,97918.28
2023-08-28T10:03:39.673Z,97919.47
2023-08-28T10:07:04.276Z,97925.72
2023-08-28T10:10:27.199Z,97911.25
2023-08-28T10:13:50.148Z,97915.38
2023-08-28T10:17:15.967Z,97917.69
2023-08-28T10:20:40.352Z,97923.28
2023-08-28T10:24:03.571Z,97924.03
2023-08-28T10:27:26.903Z,97922.22
2023-08-28T10:30:52.966Z,97913.91
2023-08-28T10:34:16.587Z,97918.66
2023-08-28T10:37:40.424Z,97919.09
2023-08-28T10:41:04.780Z,97914.38
2023-08-28T10:44:28.600Z,97911.50
2023-08-28T10:47:52.428Z,97911.47
2023-08-28T10:51:15.222Z,97906.22
2023-08-28T10:54:44.973Z,97904.72
2023-08-28T10:58:07.290Z,97909.34
2023-08-28T11:01:51.506Z,97907.31
2023-08-28T11:05:17.272Z,97908.53
2023-08-28T11:08:40.621Z,97899.78
2023-08-28T11:12:02.928Z,97902.56
2023-08-28T11:15:30.948Z,97911.50
2023-08-28T11:18:58.528Z,97911.81
2023-08-28T11:22:46.663Z,97914.06
2023-08-28T11:26:28.040Z,97921.06
2023-08-28T11:29:50.439Z,97917.56
2023-08-28T11:33:12.816Z,97917.88
2023-08-28T11:36:40.747Z,97921.53
2023-08-28T11:40:09.330Z,97920.69
2023-08-28T11:43:36.000Z,97919.31
2023-08-28T11:46:58.258Z,97917.44
2023-08-28T11:50:20.642Z,97918.19
2023-08-28T11:53:44.645Z,97914.00
2023-08-28T11:57:08.545Z,97916.31
2023-08-28T12:00:47.416Z,97912.88
2023-08-28T12:04:24.203Z,97904.56
2023-08-28T12:07:53.903Z,97919.34
2023-08-28T12:11:21.195Z,97921.31
2023-08-28T12:18:24.340Z,97915.78
2023-08-28T12:21:49.801Z,97923.78
2023-08-28T12:25:18.429Z,97924.91
2023-08-28T12:28:42.245Z,97914.19
2023-08-28T12:32:08.477Z,97913.22
2023-08-28T12:35:38.464Z,97889.78
2023-08-28T12:39:01.490Z,97901.84
2023-08-28T12:42:23.827Z,97899.44
2023-08-28T12:45:46.082Z,97870.16
2023-08-28T12:49:08.699Z,97884.41
2023-08-28T12:52:31.331Z,97884.53
2023-08-28T12:55:53.761Z,97881.72
2023-08-28T12:59:17.598Z,97870.59
2023-08-28T13:02:40.016Z,97866.81
2023-08-28T13:06:05.927Z,97866.72
2023-08-28T13:09:28.907Z,97867.72
2023-08-28T13:12:54.656Z,97865.97
2023-08-28T13:16:31.517Z,97860.03
2023-08-28T13:19:54.748Z,97862.50
2023-08-28T13:23:19.966Z,97860.19
2023-08-28T13:26:42.302Z,97862.19
2023-08-28T13:30:08.509Z,97846.31
2023-08-28T13:33:30.948Z,97850.03
2023-08-28T13:36:54.326Z,97853.44
2023-08-28T13:40:17.419Z,97846.38
2023-08-28T13:43:40.197Z,97861.03
2023-08-28T13:47:02.496Z,97861.56
2023-08-28T13:50:25.247Z,97860.25
2023-08-28T13:53:47.858Z,97861.72
2023-08-28T13:57:11.179Z,97855.97
2023-08-28T14:00:34.528Z,97854.09
2023-08-28T14:03:57.748Z,97859.09
2023-08-28T14:07:24.328Z,97853.78
2023-08-28T14:10:50.178Z,97862.34
2023-08-28T14:14:15.340Z,97865.41
2023-08-28T14:17:53.370Z,97863.03
2023-08-28T14:21:57.463Z,97864.06
2023-08-28T14:30:13.255Z,97869.00
2023-08-28T14:45:57.390Z,97886.47
2023-08-28T14:49:35.946Z,97882.38
2023-08-28T14:53:09.653Z,97877.88
2023-08-28T14:57:12.301Z,97877.66
2023-08-28T15:09:39.582Z,97885.50
2023-08-28T15:13:27.923Z,97884.00
2023-08-28T15:17:20.226Z,97900.25
2023-08-28T15:21:16.337Z,97901.84
2023-08-28T15:25:02.999Z,97901.63
2023-08-28T15:28:39.132Z,97906.41
2023-08-28T15:32:24.406Z,97907.97
2023-08-28T15:43:58.619Z,97906.16
2023-08-28T15:47:55.745Z,97906.97
2023-08-28T15:51:18.094Z,97907.59
2023-08-28T15:55:06.187Z,97911.59
2023-08-28T15:58:31.262Z,97910.28
2023-08-28T16:02:03.823Z,97907.53
2023-08-28T16:05:29.482Z,97905.72
2023-08-28T16:08:52.967Z,97905.94
2023-08-28T16:12:15.315Z,97898.63
2023-08-28T16:15:39.568Z,97892.22
2023-08-28T16:19:03.400Z,97898.03
2023-08-28T16:22:25.714Z,97889.69
2023-08-28T16:25:49.615Z,97888.75
2023-08-28T16:29:11.863Z,97893.66
2023-08-28T16:32:34.290Z,97881.94
2023-08-28T16:35:56.834Z,97891.75
2023-08-28T16:39:19.090Z,97888.88
2023-08-28T16:42:41.593Z,97886.69
2023-08-28T16:46:03.930Z,97896.34
2023-08-28T16:49:26.420Z,97890.56
2023-08-28T16:52:48.770Z,97882.25
2023-08-28T16:56:11.078Z,97887.75
2023-08-28T16:59:33.383Z,97885.75
2023-08-28T17:02:57.213Z,97896.16
2023-08-28T17:06:19.538Z,97901.94
2023-08-28T17:09:41.830Z,97910.69
2023-08-28T17:13:04.406Z,97909.25
2023-08-28T17:16:27.100Z,97908.41
2023-08-28T17:19:49.434Z,97895.78
2023-08-28T17:23:11.724Z,97934.81
2023-08-28T17:26:34.028Z,97931.88
2023-08-28T17:29:57.083Z,97938.75
2023-08-28T17:33:19.328Z,97944.56
2023-08-28T17:36:41.684Z,97940.59
2023-08-28T17:40:06.555Z,97942.25
2023-08-28T17:43:29.783Z,97944.94
2023-08-28T17:46:52.722Z,97949.28
2023-08-28T17:50:15.296Z,97942.03
2023-08-28T17:53:38.017Z,97941.16
2023-08-28T17:57:00.281Z,97954.81
2023-08-28T18:00:22.640Z,97950.78
2023-08-28T18:03:45.381Z,97944.72
2023-08-28T18:07:08.299Z,97945.94
2023-08-28T18:10:31.866Z,97952.50
2023-08-28T18:13:54.232Z,97945.25
2023-08-28T18:17:17.257Z,97952.06
2023-08-28T18:20:45.376Z,97949.53
2023-08-28T18:24:08.175Z,97934.44
2023-08-28T18:27:30.451Z,97949.56
2023-08-28T18:30:52.691Z,97945.38
2023-08-28T18:34:17.907Z,97960.38
2023-08-28T18:37:40.228Z,97947.09
2023-08-28T18:41:02.555Z,97940.31
2023-08-28T18:44:24.922Z,97963.88
2023-08-28T18:47:48.261Z,97960.91
2023-08-28T18:51:10.531Z,97962.50
2023-08-28T18:54:33.084Z,97959.31
2023-08-28T18:57:55.311Z,97958.16
2023-08-28T19:01:17.625Z,97964.63
2023-08-28T19:04:43.163Z,97972.31
2023-08-28T19:08:05.972Z,97970.66
2023-08-28T19:11:28.368Z,97966.69
2023-08-28T19:14:50.687Z,97965.94
2023-08-28T19:18:12.990Z,97965.94
2023-08-28T19:21:35.244Z,97957.75
2023-08-28T19:24:58.906Z,97956.03
2023-08-28T19:28:21.426Z,97959.53
2023-08-28T19:31:45.124Z,97963.13
2023-08-28T19:35:14.780Z,97967.22
2023-08-28T19:38:37.307Z,97963.25
2023-08-28T19:42:00.211Z,97982.63
2023-08-28T19:45:25.219Z,97980.47
2023-08-28T19:48:50.930Z,97985.72
2023-08-28T19:52:20.813Z,97990.13
2023-08-28T19:55:43.396Z,97988.97
2023-08-28T19:59:06.691Z,97989.56
2023-08-28T20:02:32.428Z,97994.59
2023-08-28T20:06:08.053Z,97999.22
2023-08-28T20:09:31.758Z,98001.72
2023-08-28T20:12:55.127Z,98004.34
2023-08-28T20:16:17.750Z,97998.63
2023-08-28T20:19:40.310Z,98003.28
2023-08-28T20:23:02.914Z,98002.91
2023-08-28T20:26:29.511Z,98012.78
2023-08-28T20:29:52.079Z,98001.59
2023-08-28T20:33:15.538Z,98008.91
2023-08-28T20:36:40.570Z,98008.91
2023-08-28T20:40:04.253Z,98013.53
2023-08-28T20:43:27.422Z,98006.44
2023-08-28T20:46:50.694Z,97998.09
2023-08-28T20:50:13.212Z,98003.81
2023-08-28T20:53:35.572Z,98009.19
2023-08-28T20:56:57.980Z,98003.44
2023-08-28T21:00:20.421Z,97997.59
2023-08-28T21:03:43.413Z,97990.84
2023-08-28T21:07:05.989Z,97993.38
2023-08-28T21:10:28.248Z,97978.09
2023-08-28T21:13:50.502Z,97992.91
2023-08-28T21:17:12.738Z,97988.13
2023-08-28T21:20:34.994Z,97989.25
2023-08-28T21:23:57.314Z,97974.31
2023-08-28T21:27:19.616Z,97969.03
2023-08-28T21:30:51.738Z,97977.00
2023-08-28T21:34:18.958Z,97966.66
2023-08-28T21:37:41.581Z,97975.09
2023-08-28T21:41:06.734Z,97975.59
2023-08-28T21:44:32.169Z,97967.63
2023-08-28T21:48:04.032Z,97966.50
2023-08-28T21:51:45.085Z,97958.50
2023-08-28T21:55:32.460Z,97960.34
2023-08-28T21:59:13.708Z,97953.34
2023-08-28T22:02:54.682Z,97953.88
2023-08-28T22:06:35.930Z,97952.47
2023-08-28T22:09:58.484Z,97951.13
2023-08-28T22:13:27.681Z,97945.47
2023-08-28T22:16:50.680Z,97949.22
2023-08-28T22:20:15.114Z,97942.88
2023-08-28T22:23:41.230Z,97951.41
2023-08-28T22:27:03.824Z,97963.94
2023-08-28T22:30:26.109Z,97961.13
2023-08-28T22:33:48.434Z,97971.00
2023-08-28T22:37:10.681Z,97971.34
2023-08-28T22:40:32.921Z,97969.69
2023-08-28T22:43:58.124Z,97979.88
2023-08-28T22:47:20.617Z,97986.88
2023-08-28T22:50:42.933Z,97974.19
2023-08-28T22:54:07.913Z,97961.31
2023-08-28T22:57:35.294Z,97958.94
2023-08-28T23:01:01.172Z,97954.56
2023-08-28T23:04:23.592Z,97947.88
2023-08-28T23:07:53.348Z,97945.53
2023-08-28T23:11:22.205Z,97928.00
2023-08-28T23:14:44.551Z,97941.19
2023-08-28T23:18:14.247Z,97946.19
2023-08-28T23:21:42.129Z,97948.56
2023-08-28T23:25:07.543Z,97940.72
2023-08-28T23:28:32.197Z,97922.84
2023-08-28T23:31:55.702Z,97927.84
2023-08-28T23:35:19.100Z,97925.19
2023-08-28T23:38:41.482Z,97922.19
2023-08-28T23:42:04.124Z,97928.19
2023-08-28T23:45:26.417Z,97910.16
2023-08-28T23:48:51.736Z,97903.78
2023-08-28T23:52:14.156Z,97886.28
2023-08-28T23:55:36.537Z,97882.28
2023-08-28T23:59:03.095Z,97889.75
